createdAt,value
2018-07-02T00:00:59.388Z,58.55
2018-07-02T00:01:59.392Z,58.45
2018-07-02T00:02:59.404Z,58.55
2018-07-02T00:03:59.392Z,58.36
2018-07-02T00:04:59.397Z,58.45
2018-07-02T00:05:59.529Z,58.17
2018-07-02T00:06:59.404Z,58.64
2018-07-02T00:07:59.534Z,59.12
2018-07-02T00:08:59.398Z,59.32
2018-07-02T00:09:59.426Z,59.41
2018-07-02T00:10:59.564Z,59.51
2018-07-02T00:11:59.426Z,59.51
2018-07-02T00:12:59.437Z,59.51
2018-07-02T00:13:59.427Z,59.41
2018-07-02T00:14:59.433Z,59.51
2018-07-02T00:15:59.457Z,59.58
2018-07-02T00:16:59.439Z,60.05
2018-07-02T00:17:59.441Z,60.25
2018-07-02T00:18:59.438Z,60.15
2018-07-02T00:19:59.464Z,60.05
2018-07-02T00:20:59.449Z,59.96
2018-07-02T00:21:59.484Z,60.05
2018-07-02T00:22:59.461Z,60.15
2018-07-02T00:23:59.451Z,60.05
2018-07-02T00:24:59.455Z,60.25
2018-07-02T00:25:59.465Z,59.77
2018-07-02T00:26:59.444Z,60.25
2018-07-02T00:27:59.456Z,59.96
2018-07-02T00:28:59.448Z,59.96
2018-07-02T00:29:59.482Z,60.15
2018-07-02T00:30:59.488Z,60.05
2018-07-02T00:31:59.500Z,60.15
2018-07-02T00:32:59.482Z,60.05
2018-07-02T00:34:00.434Z,60.05
2018-07-02T00:34:59.473Z,60.35
2018-07-02T00:35:59.491Z,60.53
2018-07-02T00:36:59.470Z,60.63
2018-07-02T00:37:59.465Z,60.05
2018-07-02T00:38:59.521Z,60.05
2018-07-02T00:39:59.513Z,60.05
2018-07-02T00:40:59.486Z,60.35
2018-07-02T00:41:59.532Z,60.35
2018-07-02T00:42:59.535Z,60.53
2018-07-02T00:44:00.440Z,60.82
2018-07-02T00:44:59.511Z,60.63
2018-07-02T00:45:59.583Z,60.72
2018-07-02T00:46:59.498Z,60.63
2018-07-02T00:47:59.538Z,61.11
2018-07-02T00:48:59.504Z,60.44
2018-07-02T00:49:59.543Z,60.53
2018-07-02T00:50:59.515Z,60.63
2018-07-02T00:51:59.551Z,60.82
2018-07-02T00:52:59.521Z,60.92
2018-07-02T00:53:59.547Z,61.59
2018-07-02T00:54:59.548Z,60.92
2018-07-02T00:55:59.600Z,60.53
2018-07-02T00:56:59.558Z,60.92
2018-07-02T00:57:59.533Z,61.40
2018-07-02T00:58:59.554Z,60.82
2018-07-02T00:59:59.547Z,60.82
2018-07-02T01:00:59.534Z,61.59
2018-07-02T01:01:59.615Z,61.11
2018-07-02T01:02:59.585Z,61.11
2018-07-02T01:03:59.538Z,61.49
2018-07-02T01:04:59.550Z,60.82
2018-07-02T01:05:59.571Z,61.11
2018-07-02T01:06:59.602Z,60.79
2018-07-02T01:07:59.614Z,60.63
2018-07-02T01:08:59.567Z,60.53
2018-07-02T01:09:59.604Z,60.15
2018-07-02T01:10:59.589Z,60.72
2018-07-02T01:12:00.450Z,60.70
2018-07-02T01:12:59.568Z,60.53
2018-07-02T01:13:59.608Z,60.72
2018-07-02T01:14:59.618Z,60.79
2018-07-02T01:15:59.589Z,60.79
2018-07-02T01:16:59.622Z,60.89
2018-07-02T01:17:59.601Z,61.08
2018-07-02T01:18:59.609Z,61.75
2018-07-02T01:19:59.624Z,60.70
2018-07-02T01:20:59.603Z,61.46
2018-07-02T01:21:59.599Z,60.70
2018-07-02T01:22:59.598Z,61.37
2018-07-02T01:23:59.610Z,60.79
2018-07-02T01:25:00.455Z,60.79
2018-07-02T01:25:59.607Z,61.56
2018-07-02T01:26:59.621Z,61.18
2018-07-02T01:27:59.609Z,60.60
2018-07-02T01:28:59.616Z,60.70
2018-07-02T01:29:59.630Z,61.46
2018-07-02T01:30:59.629Z,61.46
2018-07-02T01:31:59.685Z,60.70
2018-07-02T01:32:59.633Z,60.79
2018-07-02T01:33:59.648Z,61.46
2018-07-02T01:34:59.650Z,60.89
2018-07-02T01:35:59.670Z,61.27
2018-07-02T01:36:59.647Z,61.27
2018-07-02T01:37:59.782Z,61.66
2018-07-02T01:38:59.685Z,61.56
2018-07-02T01:39:59.654Z,61.46
2018-07-02T01:40:59.659Z,61.37
2018-07-02T01:41:59.682Z,61.27
2018-07-02T01:42:59.665Z,61.46
2018-07-02T01:43:59.698Z,62.04
2018-07-02T01:44:59.653Z,61.66
2018-07-02T01:45:59.674Z,61.56
2018-07-02T01:46:59.698Z,61.56
2018-07-02T01:47:59.670Z,61.75
2018-07-02T01:48:59.668Z,61.37
2018-07-02T01:49:59.690Z,61.75
2018-07-02T01:50:59.679Z,61.85
2018-07-02T01:51:59.675Z,61.94
2018-07-02T01:52:59.697Z,62.01
2018-07-02T01:53:59.679Z,62.23
2018-07-02T01:54:59.695Z,62.52
2018-07-02T01:56:00.459Z,62.23
2018-07-02T01:56:59.683Z,62.33
2018-07-02T01:57:59.711Z,62.20
2018-07-02T01:58:59.698Z,61.53
2018-07-02T01:59:59.723Z,62.10
2018-07-02T02:00:59.720Z,62.30
2018-07-02T02:01:59.736Z,61.91
2018-07-02T02:02:59.730Z,62.33
2018-07-02T02:03:59.786Z,62.49
2018-07-02T02:04:59.717Z,62.30
2018-07-02T02:05:59.708Z,62.30
2018-07-02T02:06:59.713Z,62.49
2018-07-02T02:07:59.748Z,62.96
2018-07-02T02:08:59.725Z,62.68
2018-07-02T02:09:59.724Z,62.59
2018-07-02T02:10:59.725Z,63.54
2018-07-02T02:11:59.781Z,63.06
2018-07-02T02:12:59.784Z,62.68
2018-07-02T02:13:59.757Z,63.45
2018-07-02T02:14:59.744Z,63.54
2018-07-02T02:15:59.747Z,63.73
2018-07-02T02:16:59.738Z,63.45
2018-07-02T02:17:59.730Z,63.35
2018-07-02T02:18:59.739Z,63.64
2018-07-02T02:19:59.778Z,64.22
2018-07-02T02:20:59.815Z,64.09
2018-07-02T02:21:59.795Z,64.02
2018-07-02T02:22:59.802Z,64.47
2018-07-02T02:23:59.783Z,64.09
2018-07-02T02:24:59.800Z,64.37
2018-07-02T02:25:59.772Z,64.28
2018-07-02T02:26:59.787Z,64.66
2018-07-02T02:27:59.781Z,64.66
2018-07-02T02:28:59.756Z,64.95
2018-07-02T02:29:59.771Z,65.14
2018-07-02T02:30:59.769Z,64.95
2018-07-02T02:31:59.778Z,65.42
2018-07-02T02:32:59.784Z,65.14
2018-07-02T02:33:59.788Z,65.23
2018-07-02T02:34:59.796Z,65.14
2018-07-02T02:36:00.475Z,65.42
2018-07-02T02:36:59.805Z,65.23
2018-07-02T02:37:59.821Z,66.00
2018-07-02T02:38:59.805Z,65.14
2018-07-02T02:39:59.811Z,65.33
2018-07-02T02:40:59.828Z,66.00
2018-07-02T02:41:59.831Z,65.91
2018-07-02T02:42:59.851Z,66.09
2018-07-02T02:43:59.843Z,66.00
2018-07-02T02:44:59.835Z,65.71
2018-07-02T02:45:59.865Z,66.00
2018-07-02T02:46:59.834Z,65.81
2018-07-02T02:47:59.844Z,65.62
2018-07-02T02:48:59.847Z,65.71
2018-07-02T02:49:59.898Z,65.91
2018-07-02T02:50:59.847Z,66.48
2018-07-02T02:51:59.832Z,65.81
2018-07-02T02:52:59.833Z,65.78
2018-07-02T02:53:59.828Z,65.88
2018-07-02T02:54:59.833Z,65.88
2018-07-02T02:55:59.841Z,66.29
2018-07-02T02:56:59.837Z,66.25
2018-07-02T02:57:59.849Z,66.16
2018-07-02T02:58:59.842Z,65.78
2018-07-02T02:59:59.850Z,66.35
2018-07-02T03:00:59.853Z,66.25
2018-07-02T03:01:59.874Z,66.35
2018-07-02T03:02:59.898Z,66.06
2018-07-02T03:03:59.890Z,66.25
2018-07-02T03:04:59.889Z,66.93
2018-07-02T03:05:59.904Z,66.45
2018-07-02T03:06:59.898Z,66.83
2018-07-02T03:07:59.898Z,66.93
2018-07-02T03:08:59.904Z,66.74
2018-07-02T03:09:59.903Z,66.83
2018-07-02T03:10:59.880Z,67.11
2018-07-02T03:11:59.903Z,67.60
2018-07-02T03:12:59.914Z,67.88
2018-07-02T03:13:59.904Z,67.69
2018-07-02T03:14:59.910Z,67.79
2018-07-02T03:16:00.000Z,67.41
2018-07-02T03:16:59.892Z,67.79
2018-07-02T03:17:59.896Z,67.88
2018-07-02T03:18:59.887Z,67.60
2018-07-02T03:19:59.888Z,67.50
2018-07-02T03:20:59.903Z,67.69
2018-07-02T03:21:59.916Z,67.88
2018-07-02T03:22:59.911Z,67.79
2018-07-02T03:23:59.942Z,67.50
2018-07-02T03:24:59.927Z,67.50
2018-07-02T03:25:59.965Z,67.02
2018-07-02T03:26:59.922Z,67.60
2018-07-02T03:27:59.933Z,67.41
2018-07-02T03:28:59.937Z,67.11
2018-07-02T03:29:59.939Z,67.41
2018-07-02T03:30:59.921Z,67.69
2018-07-02T03:31:59.925Z,67.11
2018-07-02T03:32:59.935Z,67.41
2018-07-02T03:33:59.962Z,67.88
2018-07-02T03:34:59.967Z,67.02
2018-07-02T03:35:59.940Z,67.60
2018-07-02T03:36:59.940Z,67.60
2018-07-02T03:37:59.939Z,67.98
2018-07-02T03:38:59.954Z,67.88
2018-07-02T03:39:59.966Z,67.69
2018-07-02T03:40:59.945Z,67.88
2018-07-02T03:41:59.953Z,67.50
2018-07-02T03:42:59.954Z,67.69
2018-07-02T03:43:59.956Z,67.41
2018-07-02T03:44:59.962Z,68.07
2018-07-02T03:45:59.967Z,66.93
2018-07-02T03:46:59.988Z,67.98
2018-07-02T03:47:59.979Z,67.50
2018-07-02T03:49:00.024Z,67.21
2018-07-02T03:49:59.978Z,67.60
2018-07-02T03:50:59.997Z,67.50
2018-07-02T03:51:59.994Z,67.31
2018-07-02T03:53:00.016Z,67.60
2018-07-02T03:53:59.993Z,67.69
2018-07-02T03:54:59.995Z,67.41
2018-07-02T03:56:00.000Z,67.41
2018-07-02T03:57:00.142Z,67.88
2018-07-02T03:58:00.070Z,68.07
2018-07-02T03:59:00.039Z,67.41
2018-07-02T04:00:00.015Z,68.07
2018-07-02T04:01:00.031Z,67.88
2018-07-02T04:01:59.992Z,67.98
2018-07-02T04:03:00.011Z,67.69
2018-07-02T04:04:00.001Z,67.69
2018-07-02T04:05:00.049Z,67.88
2018-07-02T04:05:59.998Z,67.41
2018-07-02T04:07:00.037Z,67.88
2018-07-02T04:08:00.018Z,67.21
2018-07-02T04:09:00.012Z,67.41
2018-07-02T04:10:00.107Z,67.31
2018-07-02T04:11:00.035Z,67.41
2018-07-02T04:12:00.065Z,67.11
2018-07-02T04:13:00.074Z,67.63
2018-07-02T04:14:00.029Z,67.21
2018-07-02T04:15:00.045Z,67.69
2018-07-02T04:16:00.046Z,67.60
2018-07-02T04:17:00.030Z,67.69
2018-07-02T04:18:00.038Z,67.60
2018-07-02T04:19:00.064Z,67.50
2018-07-02T04:20:00.057Z,68.07
2018-07-02T04:21:00.049Z,68.36
2018-07-02T04:22:00.054Z,68.17
2018-07-02T04:23:00.065Z,68.27
2018-07-02T04:24:00.068Z,68.27
2018-07-02T04:25:00.059Z,67.88
2018-07-02T04:26:00.092Z,68.17
2018-07-02T04:27:00.100Z,67.41
2018-07-02T04:28:00.111Z,67.79
2018-07-02T04:29:00.091Z,67.41
2018-07-02T04:30:00.110Z,67.41
2018-07-02T04:31:00.081Z,67.60
2018-07-02T04:32:00.095Z,67.50
2018-07-02T04:33:00.121Z,68.27
2018-07-02T04:34:00.119Z,68.11
2018-07-02T04:35:00.087Z,67.63
2018-07-02T04:36:00.111Z,68.01
2018-07-02T04:37:00.101Z,67.63
2018-07-02T04:38:01.022Z,67.54
2018-07-02T04:39:00.123Z,67.15
2018-07-02T04:40:00.089Z,68.40
2018-07-02T04:41:00.122Z,67.54
2018-07-02T04:42:00.091Z,67.34
2018-07-02T04:43:00.438Z,67.54
2018-07-02T04:44:00.119Z,67.63
2018-07-02T04:45:00.133Z,67.91
2018-07-02T04:46:00.107Z,67.44
2018-07-02T04:47:00.127Z,67.72
2018-07-02T04:48:00.108Z,67.72
2018-07-02T04:49:00.106Z,67.54
2018-07-02T04:50:00.109Z,67.34
2018-07-02T04:51:00.246Z,67.15
2018-07-02T04:52:00.116Z,67.05
2018-07-02T04:53:00.137Z,66.86
2018-07-02T04:54:00.133Z,66.99
2018-07-02T04:55:00.127Z,66.99
2018-07-02T04:56:00.139Z,66.89
2018-07-02T04:57:00.136Z,66.42
2018-07-02T04:58:00.148Z,66.42
2018-07-02T04:59:00.160Z,66.42
2018-07-02T05:00:00.151Z,66.51
2018-07-02T05:01:00.181Z,67.09
2018-07-02T05:02:00.153Z,66.42
2018-07-02T05:03:00.155Z,66.51
2018-07-02T05:04:00.152Z,65.84
2018-07-02T05:05:00.165Z,65.75
2018-07-02T05:06:00.149Z,65.75
2018-07-02T05:07:00.171Z,66.03
2018-07-02T05:08:00.171Z,65.65
2018-07-02T05:09:00.295Z,65.26
2018-07-02T05:10:00.166Z,65.75
2018-07-02T05:11:00.204Z,65.14
2018-07-02T05:12:00.184Z,63.57
2018-07-02T05:13:00.212Z,60.01
2018-07-02T05:14:00.185Z,57.47
2018-07-02T05:15:00.186Z,54.66
2018-07-02T05:16:00.235Z,52.28
2018-07-02T05:17:00.266Z,51.68
2018-07-02T05:18:00.206Z,51.87
2018-07-02T05:19:00.200Z,51.41
2018-07-02T05:20:00.201Z,50.47
2018-07-02T05:21:00.200Z,50.47
2018-07-02T05:22:00.281Z,50.31
2018-07-02T05:23:00.206Z,50.28
2018-07-02T05:24:00.241Z,50.76
2018-07-02T05:25:00.222Z,50.21
2018-07-02T05:26:00.242Z,49.15
2018-07-02T05:27:00.229Z,49.07
2018-07-02T05:28:00.213Z,48.71
2018-07-02T05:29:00.492Z,48.28
2018-07-02T05:30:00.250Z,48.21
2018-07-02T05:31:00.233Z,48.52
2018-07-02T05:32:00.223Z,47.02
2018-07-02T05:33:00.219Z,46.17
2018-07-02T05:34:00.234Z,46.03
2018-07-02T05:35:00.266Z,46.78
2018-07-02T05:36:00.259Z,48.69
2018-07-02T05:37:00.276Z,48.59
2018-07-02T05:38:00.303Z,49.63
2018-07-02T05:39:00.289Z,50.23
2018-07-02T05:40:00.277Z,52.73
2018-07-02T05:41:00.298Z,52.45
2018-07-02T05:42:00.261Z,51.34
2018-07-02T05:43:00.311Z,50.31
2018-07-02T05:44:00.294Z,48.57
2018-07-02T05:45:01.041Z,47.36
2018-07-02T05:46:00.284Z,48.30
2018-07-02T05:47:00.322Z,47.04
2018-07-02T05:48:00.314Z,45.88
2018-07-02T05:49:00.344Z,46.53
2018-07-02T05:50:00.318Z,45.73
2018-07-02T05:51:00.334Z,44.18
2018-07-02T05:52:00.368Z,43.45
2018-07-02T05:53:00.335Z,43.13
2018-07-02T05:54:00.360Z,42.86
2018-07-02T05:55:00.377Z,43.19
2018-07-02T05:56:00.365Z,44.20
2018-07-02T05:57:00.355Z,43.91
2018-07-02T05:58:00.356Z,42.36
2018-07-02T05:59:00.362Z,43.79
2018-07-02T06:00:00.366Z,45.49
2018-07-02T06:01:00.379Z,45.61
2018-07-02T06:02:00.422Z,43.72
2018-07-02T06:03:00.426Z,43.12
2018-07-02T06:04:00.392Z,43.52
2018-07-02T06:05:00.423Z,43.06
2018-07-02T06:06:00.417Z,43.02
2018-07-02T06:07:00.415Z,44.62
2018-07-02T06:08:00.521Z,44.81
2018-07-02T06:09:00.458Z,45.49
2018-07-02T06:10:00.444Z,44.76
2018-07-02T06:11:00.448Z,43.23
2018-07-02T06:12:00.477Z,43.29
2018-07-02T06:13:00.479Z,43.60
2018-07-02T06:14:00.571Z,43.13
2018-07-02T06:15:00.487Z,43.41
2018-07-02T06:16:00.493Z,44.26
2018-07-02T06:17:00.494Z,44.04
2018-07-02T06:18:00.556Z,45.13
2018-07-02T06:19:00.568Z,44.67
2018-07-02T06:20:00.526Z,43.33
2018-07-02T06:21:00.522Z,42.92
2018-07-02T06:22:00.533Z,43.06
2018-07-02T06:23:01.080Z,41.74
2018-07-02T06:24:00.550Z,40.79
2018-07-02T06:25:00.566Z,40.31
2018-07-02T06:26:00.598Z,40.17
2018-07-02T06:27:00.571Z,39.45
2018-07-02T06:28:00.610Z,40.52
2018-07-02T06:29:00.604Z,40.31
2018-07-02T06:30:00.605Z,40.58
2018-07-02T06:31:00.619Z,40.95
2018-07-02T06:32:00.631Z,41.99
2018-07-02T06:33:00.625Z,42.48
2018-07-02T06:34:00.665Z,42.38
2018-07-02T06:35:00.651Z,41.84
2018-07-02T06:36:00.694Z,41.33
2018-07-02T06:37:00.678Z,41.39
2018-07-02T06:38:00.683Z,40.62
2018-07-02T06:39:00.730Z,40.00
2018-07-02T06:40:00.703Z,40.60
2018-07-02T06:41:00.708Z,40.11
2018-07-02T06:42:00.758Z,40.71
2018-07-02T06:43:00.723Z,41.43
2018-07-02T06:44:00.751Z,40.79
2018-07-02T06:45:00.769Z,40.89
2018-07-02T06:46:00.815Z,40.91
2018-07-02T06:47:00.796Z,40.60
2018-07-02T06:48:00.779Z,40.29
2018-07-02T06:49:00.799Z,40.58
2018-07-02T06:50:00.903Z,40.48
2018-07-02T06:51:00.849Z,40.79
2018-07-02T06:52:00.830Z,39.70
2018-07-02T06:53:00.831Z,41.70
2018-07-02T06:54:00.888Z,41.82
2018-07-02T06:55:00.886Z,41.28
2018-07-02T06:56:00.869Z,39.43
2018-07-02T06:57:00.912Z,38.48
2018-07-02T06:58:00.907Z,40.11
2018-07-02T06:59:00.911Z,40.33
2018-07-02T07:00:00.936Z,39.20
2018-07-02T07:01:01.130Z,38.48
2018-07-02T07:02:00.973Z,39.55
2018-07-02T07:03:00.969Z,38.50
2018-07-02T07:04:00.989Z,38.62
2018-07-02T07:05:01.015Z,38.42
2018-07-02T07:06:01.027Z,38.19
2018-07-02T07:07:01.001Z,39.26
2018-07-02T07:08:01.038Z,39.34
2018-07-02T07:09:01.071Z,40.67
2018-07-02T07:10:01.077Z,40.25
2018-07-02T07:11:01.107Z,37.77
2018-07-02T07:12:01.071Z,36.59
2018-07-02T07:13:01.131Z,37.06
2018-07-02T07:14:01.101Z,36.98
2018-07-02T07:15:01.142Z,36.69
2018-07-02T07:16:01.127Z,37.04
2018-07-02T07:17:01.145Z,37.26
2018-07-02T07:18:01.153Z,38.15
2018-07-02T07:19:01.209Z,36.22
2018-07-02T07:20:01.301Z,36.94
2018-07-02T07:21:01.263Z,38.29
2018-07-02T07:22:01.298Z,38.62
2018-07-02T07:23:01.246Z,36.24
2018-07-02T07:24:01.341Z,36.67
2018-07-02T07:25:01.274Z,37.58
2018-07-02T07:26:01.325Z,37.68
2018-07-02T07:27:01.360Z,37.60
2018-07-02T07:28:01.312Z,35.61
2018-07-02T07:29:01.324Z,34.57
2018-07-02T07:30:01.376Z,34.92
2018-07-02T07:31:01.496Z,34.73
2018-07-02T07:32:01.385Z,34.39
2018-07-02T07:33:01.450Z,36.38
2018-07-02T07:34:01.392Z,36.69
2018-07-02T07:35:01.502Z,37.37
2018-07-02T07:36:02.108Z,36.49
2018-07-02T07:37:01.435Z,37.22
2018-07-02T07:38:01.449Z,37.46
2018-07-02T07:39:01.444Z,37.12
2018-07-02T07:40:01.486Z,37.66
2018-07-02T07:41:01.470Z,35.59
2018-07-02T07:42:01.639Z,34.94
2018-07-02T07:43:01.498Z,35.72
2018-07-02T07:44:01.584Z,34.68
2018-07-02T07:45:01.558Z,34.50
2018-07-02T07:46:01.521Z,34.52
2018-07-02T07:47:01.576Z,34.52
2018-07-02T07:48:01.805Z,34.81
2018-07-02T07:49:01.661Z,34.34
2018-07-02T07:50:01.609Z,32.21
2018-07-02T07:51:01.620Z,33.25
2018-07-02T07:52:01.625Z,33.61
2018-07-02T07:53:02.411Z,34.86
2018-07-02T07:54:01.720Z,34.78
2018-07-02T07:55:01.755Z,34.08
2018-07-02T07:56:01.826Z,34.91
2018-07-02T07:57:01.798Z,34.24
2018-07-02T07:58:01.763Z,33.58
2018-07-02T07:59:02.803Z,33.25
2018-07-02T08:00:02.778Z,32.97
2018-07-02T08:01:02.192Z,32.89
2018-07-02T08:02:01.910Z,33.18
2018-07-02T08:03:01.849Z,32.78
2018-07-02T08:04:02.227Z,32.31
2018-07-02T08:05:01.922Z,33.85
2018-07-02T08:06:01.974Z,32.48
2018-07-02T08:07:02.178Z,32.58
2018-07-02T08:08:01.903Z,32.13
2018-07-02T08:09:01.886Z,33.33
2018-07-02T08:10:01.912Z,33.43
2018-07-02T08:11:02.715Z,33.25
2018-07-02T08:12:02.032Z,32.86
2018-07-02T08:13:02.011Z,32.39
2018-07-02T08:14:02.012Z,32.76
2018-07-02T08:15:02.092Z,32.40
2018-07-02T08:17:09.044Z,31.49
2018-07-02T08:18:02.128Z,31.33
2018-07-02T08:19:02.188Z,31.28
2018-07-02T08:20:02.262Z,32.35
2018-07-02T08:21:02.183Z,32.79
2018-07-02T08:22:02.109Z,32.91
2018-07-02T08:23:02.152Z,32.71
2018-07-02T08:24:02.187Z,33.46
2018-07-02T08:25:02.195Z,34.47
2018-07-02T08:26:02.206Z,32.29
2018-07-02T08:27:02.210Z,31.54
2018-07-02T08:28:02.224Z,31.18
2018-07-02T08:29:02.290Z,30.12
2018-07-02T08:30:02.351Z,29.77
2018-07-02T08:31:02.323Z,30.05
2018-07-02T08:32:02.397Z,29.93
2018-07-02T08:33:02.399Z,31.04
2018-07-02T08:34:02.349Z,30.84
2018-07-02T08:35:03.640Z,31.16
2018-07-02T08:36:02.421Z,30.74
2018-07-02T08:37:04.975Z,31.60
2018-07-02T08:38:02.544Z,31.41
2018-07-02T08:39:02.418Z,31.15
2018-07-02T08:40:02.528Z,31.02
2018-07-02T08:41:02.514Z,31.40
2018-07-02T08:42:02.510Z,32.43
2018-07-02T08:43:02.495Z,32.97
2018-07-02T08:44:02.591Z,33.41
2018-07-02T08:45:02.644Z,33.61
2018-07-02T08:46:02.699Z,33.28
2018-07-02T08:47:02.687Z,31.41
2018-07-02T22:00:58.201Z,62.51
2018-07-02T22:01:58.004Z,62.71
2018-07-02T22:02:57.958Z,63.28
2018-07-02T22:03:57.994Z,63.38
2018-07-02T22:04:58.194Z,63.28
2018-07-02T22:05:57.969Z,63.38
2018-07-02T22:06:57.938Z,63.86
2018-07-02T22:07:57.980Z,63.64
2018-07-02T22:08:58.000Z,63.76
2018-07-02T22:09:58.003Z,64.05
2018-07-02T22:10:58.011Z,64.31
2018-07-02T22:11:58.803Z,64.40
2018-07-02T22:12:57.991Z,64.79
2018-07-02T22:13:57.977Z,64.31
2018-07-02T22:14:57.969Z,64.69
2018-07-02T22:15:58.023Z,64.89
2018-07-02T22:16:57.967Z,65.08
2018-07-02T22:17:58.020Z,64.79
2018-07-02T22:18:58.023Z,64.98
2018-07-02T22:19:58.052Z,65.27
2018-07-02T22:20:57.996Z,65.94
2018-07-02T22:21:58.051Z,66.23
2018-07-02T22:22:58.045Z,66.04
2018-07-02T22:23:58.036Z,66.42
2018-07-02T22:24:58.026Z,66.23
2018-07-02T22:25:58.146Z,66.42
2018-07-02T22:26:58.020Z,66.52
2018-07-02T22:27:58.045Z,67.10
2018-07-02T22:28:58.027Z,67.38
2018-07-02T22:29:58.066Z,67.10
2018-07-02T22:30:58.077Z,67.19
2018-07-02T22:31:58.063Z,67.00
2018-07-02T22:32:58.027Z,67.77
2018-07-02T22:33:58.009Z,67.83
2018-07-02T22:34:58.008Z,67.35
2018-07-02T22:35:58.036Z,67.68
2018-07-02T22:36:58.038Z,67.64
2018-07-02T22:37:58.104Z,67.93
2018-07-02T22:38:58.071Z,68.60
2018-07-02T22:53:15.539Z,70.04
2018-07-02T22:53:44.842Z,75.90
2018-07-02T22:54:44.835Z,72.16
2018-07-02T22:55:44.885Z,70.81
2018-07-02T22:56:44.926Z,71.39
2018-07-02T22:57:44.862Z,71.10
2018-07-02T22:58:44.884Z,71.10
2018-07-02T22:59:44.961Z,71.00
2018-07-02T23:00:44.880Z,71.96
2018-07-02T23:01:44.885Z,71.87
2018-07-02T23:02:44.883Z,71.77
2018-07-02T23:03:44.905Z,71.48
2018-07-02T23:04:44.906Z,71.67
2018-07-02T23:05:44.898Z,71.77
2018-07-02T23:06:44.897Z,71.73
2018-07-02T23:07:44.922Z,71.77
2018-07-02T23:08:44.913Z,72.31
2018-07-02T23:09:44.917Z,72.64
2018-07-02T23:10:44.919Z,72.79
2018-07-02T23:11:44.935Z,72.69
2018-07-02T23:12:44.999Z,72.60
2018-07-02T23:13:44.912Z,73.18
2018-07-02T23:14:44.944Z,73.08
2018-07-02T23:15:44.929Z,73.56
2018-07-02T23:16:44.894Z,73.27
2018-07-02T23:17:44.918Z,73.56
2018-07-02T23:18:44.937Z,74.13
2018-07-02T23:19:44.948Z,73.66
2018-07-02T23:20:44.929Z,74.52
2018-07-02T23:21:44.968Z,74.71
2018-07-02T23:22:44.936Z,74.71
2018-07-02T23:23:44.927Z,74.90
2018-07-02T23:24:44.972Z,74.33
2018-07-02T23:25:44.959Z,74.10
2018-07-02T23:26:45.016Z,74.96
2018-07-02T23:27:45.554Z,75.45
2018-07-02T23:28:44.982Z,75.25
2018-07-02T23:29:44.983Z,74.77
2018-07-02T23:30:44.987Z,75.92
2018-07-02T23:31:44.999Z,76.02
2018-07-02T23:32:44.983Z,75.82
2018-07-02T23:33:45.000Z,75.92
2018-07-02T23:34:44.982Z,76.12
2018-07-02T23:35:44.967Z,76.21
2018-07-02T23:36:45.039Z,76.31
2018-07-02T23:37:44.967Z,76.31
2018-07-02T23:38:45.011Z,76.02
2018-07-02T23:39:45.010Z,76.98
2018-07-02T23:40:45.557Z,76.40
2018-07-02T23:41:45.072Z,76.88
2018-07-02T23:42:45.000Z,76.88
2018-07-02T23:43:45.559Z,76.79
2018-07-02T23:44:44.995Z,76.79
2018-07-02T23:45:45.026Z,76.79
2018-07-02T23:46:45.045Z,76.98
2018-07-02T23:47:45.055Z,76.69
2018-07-02T23:48:45.025Z,76.79
2018-07-02T23:49:45.072Z,76.59
2018-07-02T23:50:45.024Z,77.75
2018-07-02T23:51:45.040Z,77.56
2018-07-02T23:52:45.042Z,77.84
2018-07-02T23:53:45.052Z,78.03
2018-07-02T23:54:45.059Z,77.23
2018-07-02T23:55:45.084Z,77.65
2018-07-02T23:56:44.999Z,77.90
2018-07-02T23:57:45.071Z,77.71
2018-07-02T23:58:45.063Z,78.23
2018-07-02T23:59:45.073Z,78.67
